Terminal Aerodrome Forecast
Issued by NWS Rapid City, SD

Home | Current Version | Previous Version | Text Only | Print | Product List | Glossary On
Versions: 1 2 3 4 5 6 7 8 9 10 11 12 13 14 15 16 17 18 19 20 21 22 23 24 25 26 27 28 29
217
FTUS43 KUNR 222238 AAA
TAFRAP
TAF AMD
KRAP 222238Z 2223/2318 34010KT P6SM SCT090 BKN150
     FM230100 16005KT P6SM BKN150
     FM231000 36010KT P6SM BKN040=

USA.gov is the U.S. government's official web portal to all federal, state and local government web resources and services.